Time;durP1;ratioP1;P1;durP2;ratioP2;P2;SDS_P1;SDS_P2;PMS_P1;PMS_P2;Temp;Humidity;BMP_temperature;BMP_pressure;BME280_temperature;BME280_humidity;BME280_pressure;Samples;Min_cycle;Max_cycle;Signal;HPM_P1;HPM_P2
2021/04/12 00:00:49;;;;;;;86.13;39.57;;;;;;;3.07;86.77;100648.66;5067494;28;20282;-70
2021/04/12 00:03:21;;;;;;;5.77;3.50;;;;;;;3.11;86.70;100657.34;5079039;28;20197;-71
2021/04/12 00:05:54;;;;;;;6.27;1.90;;;;;;;3.26;86.65;100675.31;5074162;28;20676;-71
2021/04/12 00:08:29;;;;;;;9.67;7.50;;;;;;;3.31;86.61;100678.66;5080425;28;20237;-70
2021/04/12 00:11:02;;;;;;;3.40;2.40;;;;;;;3.33;86.78;100667.97;5083928;28;20204;-71
2021/04/12 00:13:36;;;;;;;6.07;1.60;;;;;;;3.32;86.61;100677.72;5082613;28;20216;-70
2021/04/12 00:16:09;;;;;;;3.77;1.67;;;;;;;3.25;86.56;100670.06;5082758;28;20203;-70
2021/04/12 00:18:41;;;;;;;2.00;1.33;;;;;;;3.32;86.84;100667.09;5079417;28;20196;-71
2021/04/12 00:21:16;;;;;;;4.57;2.00;;;;;;;3.17;86.92;100657.09;5074993;28;20269;-71
2021/04/12 00:23:50;;;;;;;4.07;1.43;;;;;;;3.15;86.75;100658.09;5076458;28;20215;-70
2021/04/12 00:26:26;;;;;;;3.13;1.50;;;;;;;3.16;86.86;100649.22;5078117;28;20275;-69
2021/04/12 00:28:58;;;;;;;1.87;1.20;;;;;;;3.12;86.92;100640.50;5074299;28;20251;-70
2021/04/12 00:31:32;;;;;;;2.97;1.40;;;;;;;3.08;87.02;100634.47;5084017;28;20235;-70
2021/04/12 00:34:04;;;;;;;2.57;1.67;;;;;;;2.77;86.79;100596.78;5075570;28;20251;-70
2021/04/12 00:36:38;;;;;;;3.67;2.73;;;;;;;3.08;87.06;100645.06;5080924;28;20227;-70
2021/04/12 00:39:11;;;;;;;2.70;2.40;;;;;;;3.20;86.59;100643.72;5082869;28;20211;-70
2021/04/12 00:42:00;;;;;;;2.70;2.10;;;;;;;3.25;86.82;100641.75;5078953;28;20597;-70
2021/04/12 00:44:45;;;;;;;1.57;1.20;;;;;;;3.22;86.67;100651.63;5075346;28;20197;-70
2021/04/12 00:47:24;;;;;;;3.67;1.40;;;;;;;3.30;86.28;100657.47;5076436;28;20659;-69
2021/04/12 00:50:22;;;;;;;4.70;1.47;;;;;;;3.38;85.58;100676.63;5081117;28;20225;-70
2021/04/12 00:53:26;;;;;;;3.90;1.20;;;;;;;3.38;85.61;100673.97;5083357;28;20234;-70
2021/04/12 00:55:57;;;;;;;2.47;1.50;;;;;;;3.39;85.42;100679.22;5068718;28;20207;-70
2021/04/12 00:58:38;;;;;;;3.53;1.40;;;;;;;3.42;85.31;100668.50;5079442;28;20284;-70
2021/04/12 01:01:21;;;;;;;2.10;1.20;;;;;;;3.36;85.42;100638.66;5066737;28;20551;-71
2021/04/12 01:04:19;;;;;;;1.50;1.00;;;;;;;3.36;85.33;100636.00;5105717;28;20729;-70
2021/04/12 01:07:08;;;;;;;1.90;1.67;;;;;;;3.29;85.36;100623.91;5079060;28;20686;-70
2021/04/12 01:10:09;;;;;;;5.33;1.60;;;;;;;3.28;85.48;100627.47;5074654;28;20235;-70
2021/04/12 01:13:12;;;;;;;4.17;1.27;;;;;;;3.24;85.82;100634.72;5075006;28;20204;-69
2021/04/12 01:16:11;;;;;;;2.40;1.60;;;;;;;3.11;85.58;100626.38;5073448;28;20312;-69
2021/04/12 01:18:57;;;;;;;1.10;1.00;;;;;;;3.22;85.45;100649.81;5047051;28;20212;-70
2021/04/12 01:22:06;;;;;;;3.00;1.40;;;;;;;3.26;85.38;100645.25;5079138;28;20192;-70
2021/04/12 01:25:05;;;;;;;4.73;1.10;;;;;;;3.25;86.03;100641.75;5073194;28;20606;-70
2021/04/12 01:28:32;;;;;;;3.80;1.50;;;;;;;3.28;85.84;100627.47;5075250;28;20200;-70
2021/04/12 01:31:36;;;;;;;7.13;1.47;;;;;;;3.18;86.32;100619.03;5069769;28;20705;-70
2021/04/12 01:34:51;;;;;;;2.47;1.50;;;;;;;3.25;85.98;100623.16;5057286;28;20239;-70
2021/04/12 01:37:36;;;;;;;2.90;1.97;;;;;;;3.30;85.79;100613.22;5072038;28;20224;-70
2021/04/12 01:40:25;;;;;;;4.03;1.40;;;;;;;3.15;86.15;100610.34;5073781;28;20192;-70
2021/04/12 01:43:02;;;;;;;2.87;1.50;;;;;;;3.01;86.69;100603.75;5079332;28;20260;-70
2021/04/12 01:45:37;;;;;;;2.77;1.53;;;;;;;3.02;86.45;100599.31;5088370;28;20286;-70
2021/04/12 01:48:31;;;;;;;2.47;1.63;;;;;;;3.10;86.18;100602.56;5086340;28;20800;-69
2021/04/12 01:51:19;;;;;;;54.87;40.27;;;;;;;3.06;86.53;100577.06;5078651;28;20201;-69
2021/04/12 01:54:26;;;;;;;29.53;18.97;;;;;;;3.10;86.50;100581.34;5081737;28;20234;-70
2021/04/12 01:57:26;;;;;;;4.00;3.03;;;;;;;3.12;86.46;100568.88;5087658;28;20606;-69
2021/04/12 02:00:14;;;;;;;2.70;2.50;;;;;;;3.14;86.63;100567.03;5084051;28;20204;-70
2021/04/12 02:02:51;;;;;;;3.37;1.80;;;;;;;3.15;86.46;100559.94;5076068;28;20296;-70
2021/04/12 02:05:54;;;;;;;4.40;1.83;;;;;;;3.05;86.98;100531.09;5071700;28;20234;-70
2021/04/12 02:08:28;;;;;;;2.60;2.03;;;;;;;2.76;87.11;100495.16;5078889;28;20259;-70
2021/04/12 02:11:20;;;;;;;5.70;2.57;;;;;;;3.13;86.63;100552.03;5084628;28;20325;-69
2021/04/12 02:14:09;;;;;;;3.40;2.50;;;;;;;3.10;86.56;100536.25;5078917;28;20767;-69
2021/04/12 02:16:43;;;;;;;3.07;2.20;;;;;;;3.22;86.27;100533.09;5084978;28;20204;-69
2021/04/12 02:19:26;;;;;;;8.73;4.83;;;;;;;3.27;86.38;100546.16;5089025;28;20613;-69
2021/04/12 02:22:16;;;;;;;6.77;1.83;;;;;;;3.31;85.96;100545.97;5076404;28;20275;-70
2021/04/12 02:24:52;;;;;;;4.37;3.13;;;;;;;3.34;85.91;100553.78;5084046;28;20314;-70
2021/04/12 02:27:29;;;;;;;4.20;3.00;;;;;;;3.39;85.50;100561.59;5084933;28;20283;-70
2021/04/12 02:30:04;;;;;;;7.33;5.07;;;;;;;3.46;85.50;100570.16;5070851;28;20729;-70
2021/04/12 02:32:52;;;;;;;3.30;1.70;;;;;;;3.56;85.49;100571.50;5070200;28;20694;-70
2021/04/12 02:35:31;;;;;;;2.97;1.53;;;;;;;3.56;84.98;100571.50;5083545;28;20199;-70
2021/04/12 02:38:28;;;;;;;7.60;1.83;;;;;;;3.56;84.71;100571.50;5085587;28;20208;-69
2021/04/12 02:41:08;;;;;;;5.37;1.67;;;;;;;3.45;84.76;100561.34;5075360;28;20291;-69
2021/04/12 02:43:57;;;;;;;2.87;1.87;;;;;;;3.53;84.32;100559.22;5087833;28;20223;-70
2021/04/12 02:47:06;;;;;;;7.00;1.37;;;;;;;3.56;84.08;100572.34;5078746;28;20298;-70
2021/04/12 02:49:43;;;;;;;2.83;1.47;;;;;;;3.51;84.38;100568.16;5088731;28;20189;-70
2021/04/12 02:52:27;;;;;;;3.43;1.33;;;;;;;3.48;84.41;100560.34;5074494;28;20206;-70
2021/04/12 02:55:13;;;;;;;2.77;1.63;;;;;;;3.44;84.48;100559.59;5071541;28;20281;-69
2021/04/12 02:58:24;;;;;;;1.60;1.50;;;;;;;3.30;84.70;100546.88;5085087;28;20210;-69
2021/04/12 03:01:09;;;;;;;1.20;1.10;;;;;;;3.27;85.22;100538.19;5082783;28;20230;-71
2021/04/12 03:03:48;;;;;;;7.87;2.13;;;;;;;2.90;84.95;100488.44;5074197;28;20201;-70
2021/04/12 03:06:46;;;;;;;1.47;1.23;;;;;;;3.37;84.84;100555.50;5082160;28;20199;-70
2021/04/12 03:09:36;;;;;;;3.40;1.43;;;;;;;3.42;84.54;100559.69;5083281;28;20648;-70
2021/04/12 03:12:38;;;;;;;1.33;1.23;;;;;;;3.46;84.16;100568.38;5077587;28;20246;-71
2021/04/12 03:16:01;;;;;;;6.53;1.80;;;;;;;3.49;84.13;100567.38;5088116;28;20223;-71
2021/04/12 03:19:10;;;;;;;5.33;1.30;;;;;;;3.50;83.45;100579.72;5085952;28;20210;-70
2021/04/12 03:22:17;;;;;;;12.43;1.50;;;;;;;3.54;83.91;100570.69;5093197;27;20211;-70
2021/04/12 03:25:02;;;;;;;3.77;2.00;;;;;;;3.60;83.23;100591.66;5076947;28;20559;-71
2021/04/12 03:27:46;;;;;;;7.17;1.90;;;;;;;3.61;83.55;100583.63;5073329;28;20279;-70
2021/04/12 03:30:25;;;;;;;3.37;1.70;;;;;;;3.49;83.46;100559.41;5074152;28;20193;-70
2021/04/12 03:33:01;;;;;;;3.60;1.57;;;;;;;3.56;84.04;100560.88;5086818;28;20210;-72
2021/04/12 03:35:44;;;;;;;3.53;1.80;;;;;;;3.37;83.96;100532.47;5082640;28;20199;-71
2021/04/12 03:38:25;;;;;;;3.50;1.43;;;;;;;3.57;83.73;100570.56;5086816;28;20204;-71
2021/04/12 03:41:20;;;;;;;3.70;1.30;;;;;;;3.61;83.93;100551.78;5068618;28;20286;-71
2021/04/12 03:44:11;;;;;;;620.17;301.33;;;;;;;3.67;83.46;100548.00;5069905;28;20672;-71
2021/04/12 03:46:53;;;;;;;21.73;10.50;;;;;;;3.69;83.70;100551.47;5085053;28;20220;-71
2021/04/12 03:49:59;;;;;;;6.93;4.07;;;;;;;3.75;84.22;100551.22;5083215;28;20214;-71
2021/04/12 03:53:02;;;;;;;3.20;2.07;;;;;;;3.66;84.50;100535.66;5064516;28;20242;-71
2021/04/12 03:55:50;;;;;;;9.83;6.37;;;;;;;3.57;84.43;100544.88;5076510;28;20203;-69
2021/04/12 03:58:51;;;;;;;2.20;1.63;;;;;;;3.62;84.59;100534.06;5081555;28;20196;-69
2021/04/12 04:01:38;;;;;;;3.33;1.70;;;;;;;3.68;84.83;100539.13;5057255;28;20219;-69
2021/04/12 04:04:26;;;;;;;3.87;2.23;;;;;;;3.63;85.34;100547.28;5079927;28;20192;-69
2021/04/12 04:07:22;;;;;;;6.50;2.40;;;;;;;3.64;85.11;100534.84;5071151;28;20738;-69
2021/04/12 04:10:17;;;;;;;4.13;1.50;;;;;;;3.64;84.69;100525.09;5082636;28;20638;-68
2021/04/12 04:13:00;;;;;;;3.43;2.30;;;;;;;3.76;84.39;100538.81;5074056;28;20228;-70
2021/04/12 04:15:46;;;;;;;5.30;2.00;;;;;;;3.74;84.68;100541.53;5078961;28;20307;-69
2021/04/12 04:18:21;;;;;;;4.33;3.23;;;;;;;3.73;84.25;100530.03;5085115;28;20642;-71
2021/04/12 04:21:06;;;;;;;5.23;1.90;;;;;;;3.85;84.06;100539.25;5071741;28;20221;-70
2021/04/12 04:23:53;;;;;;;3.33;3.00;;;;;;;3.85;83.76;100544.56;5080279;28;20705;-70
2021/04/12 04:26:56;;;;;;;8.47;7.13;;;;;;;3.86;83.79;100535.66;5081814;28;20253;-70
2021/04/12 04:30:11;;;;;;;4.07;2.23;;;;;;;3.84;84.30;100539.31;5081344;28;20223;-71
2021/04/12 04:33:11;;;;;;;3.93;1.93;;;;;;;3.62;83.83;100500.41;5055321;28;20208;-70
2021/04/12 04:35:55;;;;;;;4.73;1.90;;;;;;;3.89;83.58;100532.88;5082560;28;20204;-70
2021/04/12 04:38:41;;;;;;;3.00;1.77;;;;;;;3.89;83.52;100535.53;5078645;28;20257;-70
2021/04/12 04:41:21;;;;;;;4.03;2.00;;;;;;;3.90;83.33;100539.91;5084734;28;20276;-71
2021/04/12 04:44:10;;;;;;;2.27;1.57;;;;;;;3.90;83.45;100537.25;5080075;28;20200;-69
2021/04/12 04:47:02;;;;;;;5.53;1.70;;;;;;;3.93;83.36;100541.56;5082226;28;20298;-68
2021/04/12 04:50:01;;;;;;;1.63;1.30;;;;;;;3.93;83.44;100547.75;5070959;28;20200;-69
2021/04/12 04:52:39;;;;;;;4.63;2.13;;;;;;;3.89;83.19;100546.16;5059718;28;20450;-69
2021/04/12 04:55:43;;;;;;;2.47;1.70;;;;;;;3.78;83.63;100539.59;5067330;28;20285;-68
2021/04/12 04:58:18;;;;;;;2.63;1.80;;;;;;;3.72;84.03;100554.88;5035276;28;20421;-68
2021/04/12 05:00:57;;;;;;;5.40;1.80;;;;;;;3.64;83.93;100556.09;5087334;28;20203;-68
2021/04/12 05:03:55;;;;;;;3.50;1.40;;;;;;;3.66;84.12;100549.78;5071556;28;20227;-67
2021/04/12 05:06:57;;;;;;;7.27;2.00;;;;;;;3.72;84.12;100548.69;5072452;28;20272;-68
2021/04/12 05:09:40;;;;;;;4.03;1.50;;;;;;;3.81;83.93;100574.84;5033175;28;20578;-68
2021/04/12 05:12:50;;;;;;;1.70;1.50;;;;;;;3.81;83.52;100560.72;5080816;28;20257;-68
2021/04/12 05:15:48;;;;;;;4.20;1.63;;;;;;;3.89;83.51;100562.09;5079863;28;20277;-68
2021/04/12 05:18:37;;;;;;;2.03;1.40;;;;;;;3.91;83.24;100570.84;5085458;28;20344;-68
2021/04/12 05:21:34;;;;;;;2.37;1.40;;;;;;;3.76;82.99;100549.41;5081902;28;20203;-68
2021/04/12 05:24:20;;;;;;;4.53;1.93;;;;;;;3.78;82.78;100545.78;5082960;28;20537;-68
2021/04/12 05:27:29;;;;;;;2.50;1.70;;;;;;;4.10;82.06;100591.31;5071518;28;20553;-68
2021/04/12 05:30:24;;;;;;;2.77;1.90;;;;;;;4.15;82.12;100597.28;5049527;28;20220;-68
2021/04/12 05:33:05;;;;;;;3.87;1.77;;;;;;;4.18;81.61;100595.38;5074574;28;20301;-68
2021/04/12 05:35:44;;;;;;;2.40;1.57;;;;;;;4.21;81.48;100599.69;5086182;28;20273;-68
2021/04/12 05:38:31;;;;;;;1.87;1.67;;;;;;;4.27;81.65;100599.41;5079354;28;20551;-69
2021/04/12 05:41:10;;;;;;;35.00;16.27;;;;;;;4.26;81.89;100592.38;5074335;28;20204;-68
2021/04/12 05:44:16;;;;;;;7.57;5.03;;;;;;;4.27;81.91;100586.13;5081833;28;20271;-69
2021/04/12 05:46:57;;;;;;;6.17;4.37;;;;;;;4.01;82.95;100534.16;5050847;28;20213;-69
2021/04/12 05:49:50;;;;;;;4.17;2.37;;;;;;;4.19;83.41;100578.50;5077923;28;20675;-68
2021/04/12 05:52:35;;;;;;;3.07;2.17;;;;;;;4.16;83.42;100578.63;5076532;28;20659;-68
2021/04/12 05:55:36;;;;;;;3.77;2.70;;;;;;;4.20;84.40;100577.56;5075442;28;20224;-68
2021/04/12 05:58:27;;;;;;;6.07;4.13;;;;;;;4.28;84.83;100583.38;5081731;28;20196;-69
2021/04/12 06:01:19;;;;;;;6.13;4.30;;;;;;;4.34;84.84;100580.47;5079817;28;20231;-68
2021/04/12 06:03:56;;;;;;;4.30;2.80;;;;;;;4.41;83.83;100602.31;5077228;28;20648;-71
2021/04/12 06:06:42;;;;;;;7.73;3.57;;;;;;;4.42;84.05;100595.22;5084763;28;20226;-71
2021/04/12 06:09:38;;;;;;;6.40;2.50;;;;;;;4.54;83.19;100602.63;5073880;28;20224;-71
2021/04/12 06:12:34;;;;;;;4.13;3.43;;;;;;;4.56;83.59;100598.09;5076598;28;20204;-71
2021/04/12 06:15:46;;;;;;;5.50;3.77;;;;;;;4.58;83.54;100598.88;5084170;28;20211;-70
2021/04/12 06:18:41;;;;;;;3.47;2.40;;;;;;;4.61;83.02;100612.06;5047775;28;20216;-70
2021/04/12 06:21:58;;;;;;;3.80;2.20;;;;;;;4.65;83.00;100630.47;5080961;28;20299;-71
2021/04/12 06:24:47;;;;;;;17.87;13.80;;;;;;;4.64;82.88;100625.22;5066785;28;20239;-70
2021/04/12 06:27:56;;;;;;;5.83;4.13;;;;;;;4.64;83.28;100622.56;5088152;28;20312;-70
2021/04/12 06:30:38;;;;;;;4.53;2.40;;;;;;;4.67;82.98;100619.78;5087870;28;20231;-70
2021/04/12 06:33:39;;;;;;;2.90;2.20;;;;;;;4.61;82.83;100617.41;5080830;28;20240;-69
2021/04/12 06:36:39;;;;;;;6.30;2.20;;;;;;;4.73;82.49;100643.41;5075778;28;20250;-71
2021/04/12 06:39:45;;;;;;;9.80;2.00;;;;;;;4.78;82.19;100653.84;5071532;28;20568;-71
2021/04/12 06:43:00;;;;;;;7.47;2.30;;;;;;;4.80;82.26;100649.31;5082783;28;20227;-71
2021/04/12 06:46:23;;;;;;;3.67;2.00;;;;;;;4.78;81.98;100654.72;5078758;28;20201;-71
2021/04/12 06:49:24;;;;;;;2.37;1.73;;;;;;;4.83;81.21;100643.84;5083092;28;20231;-71
2021/04/12 06:52:46;;;;;;;3.03;2.20;;;;;;;4.84;81.01;100637.59;5084359;28;20196;-70
2021/04/12 06:55:23;;;;;;;3.97;1.97;;;;;;;4.87;80.96;100648.97;5080561;28;20216;-71
2021/04/12 06:58:34;;;;;;;4.23;2.20;;;;;;;4.86;81.51;100652.56;5077964;28;20212;-71
2021/04/12 07:01:38;;;;;;;5.73;2.17;;;;;;;4.85;81.38;100660.63;5079883;28;20547;-71
2021/04/12 07:04:46;;;;;;;3.57;2.40;;;;;;;4.87;81.65;100664.06;5081402;28;20284;-70
2021/04/12 07:07:56;;;;;;;6.03;2.73;;;;;;;4.87;81.34;100653.41;5083699;28;20197;-71
2021/04/12 07:11:00;;;;;;;3.27;2.20;;;;;;;4.89;81.11;100662.19;5077377;28;20655;-72
2021/04/12 07:13:48;;;;;;;3.43;2.13;;;;;;;4.97;80.98;100676.03;5075029;28;20208;-72
2021/04/12 07:16:34;;;;;;;3.77;1.90;;;;;;;4.99;80.32;100674.16;5080928;28;20280;-70
2021/04/12 07:19:39;;;;;;;5.93;2.37;;;;;;;4.96;79.97;100653.88;5074818;28;20203;-67
2021/04/12 07:22:45;;;;;;;5.57;2.93;;;;;;;5.04;80.51;100668.63;5076790;28;20224;-70
2021/04/12 07:25:49;;;;;;;4.73;2.97;;;;;;;5.06;80.86;100674.75;5074703;28;20225;-67
2021/04/12 07:29:12;;;;;;;3.03;2.40;;;;;;;5.10;80.15;100686.97;5075956;28;20189;-69
2021/04/12 07:32:08;;;;;;;5.07;2.80;;;;;;;5.08;80.70;100699.47;5075382;28;20193;-69
2021/04/12 07:35:16;;;;;;;5.27;3.10;;;;;;;5.09;81.06;100699.41;5072803;28;20292;-69
2021/04/12 07:38:13;;;;;;;1999.90;999.90;;;;;;;5.13;81.31;100693.00;4991467;28;20662;-69
2021/04/12 07:41:31;;;;;;;654.97;179.50;;;;;;;5.18;81.62;100708.75;5078254;28;20663;-69
2021/04/12 07:44:42;;;;;;;98.87;45.20;;;;;;;5.34;80.57;100711.59;5072106;28;20923;-70
2021/04/12 07:47:40;;;;;;;19.70;11.90;;;;;;;5.47;81.05;100718.06;5075236;28;20214;-71
2021/04/12 07:50:44;;;;;;;10.20;5.40;;;;;;;5.47;80.79;100715.38;5073450;28;20738;-70
2021/04/12 07:53:41;;;;;;;13.47;6.30;;;;;;;5.58;80.64;100726.41;5079204;28;20200;-71
2021/04/12 07:56:47;;;;;;;10.70;4.97;;;;;;;5.66;80.68;100726.91;5075031;28;20652;-70
2021/04/12 08:00:01;;;;;;;11.03;5.40;;;;;;;5.69;81.02;100739.22;5065806;28;20235;-70
2021/04/12 08:03:09;;;;;;;13.47;7.37;;;;;;;5.79;81.14;100738.69;5055985;28;20220;-70
2021/04/12 08:06:30;;;;;;;11.33;6.27;;;;;;;5.89;81.22;100733.81;5063501;28;20229;-70
2021/04/12 08:09:34;;;;;;;8.47;4.23;;;;;;;5.91;80.98;100735.50;5033771;28;20627;-70
2021/04/12 08:13:02;;;;;;;11.17;5.47;;;;;;;6.13;79.76;100735.31;5076073;28;20208;-70
2021/04/12 08:16:11;;;;;;;8.00;4.37;;;;;;;6.31;79.00;100748.63;5075184;28;20292;-70
2021/04/12 08:19:03;;;;;;;5.80;3.40;;;;;;;6.48;77.95;100746.88;5064995;28;20217;-70
2021/04/12 08:22:09;;;;;;;8.43;3.83;;;;;;;6.54;76.54;100733.22;5067268;28;20752;-70
2021/04/12 08:25:16;;;;;;;8.57;3.90;;;;;;;6.73;76.35;100729.56;5070904;28;20190;-70
2021/04/12 08:28:24;;;;;;;6.53;3.57;;;;;;;6.85;75.46;100734.28;5068028;28;20216;-71
2021/04/12 08:31:27;;;;;;;6.53;3.33;;;;;;;6.68;73.13;100699.59;5070366;28;20586;-70
2021/04/12 08:34:43;;;;;;;5.17;2.53;;;;;;;7.01;74.31;100748.53;5070845;28;20275;-70
2021/04/12 08:37:32;;;;;;;5.73;3.30;;;;;;;7.11;71.14;100752.47;5070867;28;20201;-70
2021/04/12 08:40:31;;;;;;;3.77;2.23;;;;;;;7.14;72.67;100752.28;5067438;28;20990;-69
2021/04/12 08:43:17;;;;;;;3.37;2.33;;;;;;;7.10;73.08;100749.88;5074987;28;20232;-69
2021/04/12 08:46:03;;;;;;;4.33;2.70;;;;;;;7.02;70.36;100726.22;5081047;28;20200;-70
2021/04/12 08:48:51;;;;;;;3.30;2.07;;;;;;;7.29;72.61;100765.75;5074514;28;20231;-70
2021/04/12 08:51:52;;;;;;;3.50;2.27;;;;;;;7.28;72.47;100759.56;5076202;28;20207;-70
2021/04/12 08:54:51;;;;;;;5.50;3.50;;;;;;;7.33;70.95;100753.94;5074303;28;20256;-70
2021/04/12 08:58:05;;;;;;;6.60;3.07;;;;;;;7.40;69.35;100766.06;5063965;28;20414;-71
2021/04/12 09:01:25;;;;;;;5.20;2.93;;;;;;;7.36;69.02;100764.50;5051385;28;20214;-71
2021/04/12 09:04:36;;;;;;;3.60;2.60;;;;;;;7.29;70.36;100755.06;5067533;28;20309;-70
2021/04/12 09:07:42;;;;;;;3.77;2.73;;;;;;;7.35;70.51;100762.78;5037959;28;20216;-70
2021/04/12 09:10:39;;;;;;;5.87;2.73;;;;;;;7.60;69.10;100767.63;5056915;28;20664;-71
2021/04/12 09:13:30;;;;;;;3.03;2.23;;;;;;;7.71;69.64;100760.75;5069850;28;20194;-71
2021/04/12 09:16:17;;;;;;;2.70;2.13;;;;;;;7.72;70.74;100735.75;5077583;28;20305;-71
2021/04/12 09:19:27;;;;;;;1.77;1.67;;;;;;;8.10;69.92;100770.13;5079488;28;20236;-71
2021/04/12 09:22:47;;;;;;;3.73;1.60;;;;;;;8.46;70.84;100772.53;5076992;28;20254;-71
2021/04/12 09:25:54;;;;;;;2.57;1.50;;;;;;;8.84;70.29;100777.41;5080550;28;20202;-71
2021/04/12 09:29:03;;;;;;;3.00;1.83;;;;;;;9.21;67.59;100782.28;5071546;28;20521;-71
2021/04/12 09:32:03;;;;;;;1.93;1.73;;;;;;;9.41;66.64;100780.19;5067251;28;20681;-71
2021/04/12 09:34:59;;;;;;;1.50;1.40;;;;;;;9.56;66.42;100788.13;5066065;28;20689;-71
2021/04/12 09:38:08;;;;;;;0.93;0.93;;;;;;;9.54;65.90;100784.69;5082095;28;20681;-72
2021/04/12 09:41:17;;;;;;;3.80;3.43;;;;;;;9.61;64.87;100801.25;5062487;28;20234;-71
2021/04/12 09:44:27;;;;;;;282.60;132.63;;;;;;;9.53;65.34;100815.13;5085234;28;20207;-72
2021/04/12 09:47:47;;;;;;;59.73;25.83;;;;;;;9.32;65.08;100817.31;5062310;28;20220;-72
2021/04/12 09:51:17;;;;;;;5.50;3.10;;;;;;;9.21;65.94;100818.94;5067176;28;20202;-72
2021/04/12 09:54:32;;;;;;;2.33;1.87;;;;;;;8.96;64.42;100796.31;4987155;28;20310;-71
2021/04/12 09:57:41;;;;;;;4.80;3.50;;;;;;;9.05;65.68;100839.56;4995655;28;20623;-72
2021/04/12 10:00:34;;;;;;;1.40;1.30;;;;;;;9.01;65.83;100850.47;5071161;28;20205;-70
2021/04/12 10:03:47;;;;;;;1.20;1.10;;;;;;;8.94;65.76;100846.44;5085429;28;20210;-71
2021/04/12 10:06:55;;;;;;;0.87;0.87;;;;;;;8.95;66.54;100855.31;5090094;28;20203;-72
2021/04/12 10:09:55;;;;;;;2.37;1.90;;;;;;;9.00;64.71;100861.25;5082194;28;20237;-71
2021/04/12 10:12:46;;;;;;;2.33;2.13;;;;;;;8.92;65.22;100877.78;5072260;28;20279;-71
2021/04/12 10:15:22;;;;;;;1.20;1.20;;;;;;;8.77;66.30;100873.31;5081825;28;20261;-71
2021/04/12 10:17:53;;;;;;;1.40;1.30;;;;;;;8.72;65.69;100870.06;5074393;28;20835;-72
2021/04/12 10:20:28;;;;;;;0.83;0.80;;;;;;;8.62;66.52;100863.53;5078529;28;20198;-71
2021/04/12 10:22:59;;;;;;;1.00;1.00;;;;;;;8.54;65.72;100812.22;5088942;28;20249;-71
2021/04/12 10:25:33;;;;;;;0.90;0.90;;;;;;;9.00;65.92;100862.13;5086033;28;20613;-71
2021/04/12 10:28:19;;;;;;;1.10;0.97;;;;;;;9.18;64.65;100875.38;5081896;28;20553;-71
2021/04/12 10:30:54;;;;;;;0.50;0.50;;;;;;;9.18;65.56;100880.72;5080499;28;20219;-71
2021/04/12 10:33:29;;;;;;;0.63;0.63;;;;;;;9.18;64.23;100894.13;5076397;28;20201;-71
2021/04/12 10:36:00;;;;;;;0.80;0.80;;;;;;;8.82;64.40;100827.53;5075408;28;20219;-71
2021/04/12 10:38:31;;;;;;;0.47;0.47;;;;;;;9.09;64.50;100883.97;5070572;28;20201;-72
2021/04/12 10:41:11;;;;;;;0.70;0.70;;;;;;;9.14;65.18;100892.56;5076770;28;20275;-72
2021/04/12 10:44:07;;;;;;;0.67;0.63;;;;;;;8.99;64.71;100876.47;5081294;28;20203;-72
2021/04/12 10:46:49;;;;;;;5.10;0.70;;;;;;;9.15;65.79;100870.19;5089115;28;20295;-72
2021/04/12 10:49:21;;;;;;;0.50;0.50;;;;;;;9.29;64.26;100864.88;5075401;28;20685;-72
2021/04/12 10:51:57;;;;;;;0.90;0.90;;;;;;;9.38;64.60;100883.06;5090607;28;20213;-72
2021/04/12 10:54:41;;;;;;;0.67;0.67;;;;;;;9.57;64.05;100886.38;5084169;28;20191;-72
2021/04/12 10:57:30;;;;;;;0.80;0.80;;;;;;;9.81;63.10;100888.50;5079841;28;20200;-72
2021/04/12 11:00:13;;;;;;;0.70;0.70;;;;;;;9.88;63.49;100903.25;5086514;28;20200;-72
2021/04/12 11:02:57;;;;;;;0.60;0.60;;;;;;;10.05;61.34;100903.03;5078762;28;20215;-72
2021/04/12 11:05:27;;;;;;;0.60;0.60;;;;;;;9.80;63.00;100913.59;5071293;28;20269;-72
2021/04/12 11:08:02;;;;;;;0.70;0.70;;;;;;;9.80;62.36;100913.59;5082941;28;20203;-72
2021/04/12 11:10:38;;;;;;;0.50;0.50;;;;;;;9.80;63.62;100924.31;5075531;28;20195;-72
2021/04/12 11:13:09;;;;;;;0.53;0.53;;;;;;;9.82;63.18;100917.03;5089743;28;20203;-72
2021/04/12 11:16:00;;;;;;;0.70;0.70;;;;;;;9.68;62.02;100903.59;5069475;28;20261;-72
2021/04/12 11:18:31;;;;;;;0.93;0.60;;;;;;;9.62;63.29;100927.16;5078132;28;20212;-71
2021/04/12 11:21:06;;;;;;;0.67;0.60;;;;;;;9.73;63.05;100931.00;5080655;28;20208;-72
2021/04/12 11:23:38;;;;;;;0.80;0.70;;;;;;;9.79;62.39;100935.97;5085076;28;20194;-71
2021/04/12 11:26:24;;;;;;;0.53;0.53;;;;;;;9.58;62.74;100925.63;5075212;28;20206;-72
2021/04/12 11:28:54;;;;;;;0.83;0.50;;;;;;;9.75;62.23;100935.31;5078958;28;20667;-72
2021/04/12 11:31:43;;;;;;;1212.20;516.10;;;;;;;9.78;62.47;100948.53;5071762;28;20216;-72
2021/04/12 11:34:22;;;;;;;48.90;20.47;;;;;;;9.57;62.53;100937.31;5076340;28;20196;-72
2021/04/12 11:37:12;;;;;;;34.73;14.07;;;;;;;9.57;62.78;100923.91;5078778;28;20582;-72
2021/04/12 11:39:48;;;;;;;9.37;4.60;;;;;;;9.77;62.31;100954.00;5077043;28;20216;-72
2021/04/12 11:42:18;;;;;;;5.50;2.70;;;;;;;9.88;62.04;100954.22;5075376;28;20537;-72
2021/04/12 11:44:49;;;;;;;2.13;1.20;;;;;;;9.93;61.76;100961.00;5075521;28;20276;-72
2021/04/12 11:47:27;;;;;;;1.40;1.17;;;;;;;10.00;62.48;100961.50;5070484;28;20198;-72
2021/04/12 11:50:31;;;;;;;0.80;0.80;;;;;;;10.02;62.33;100951.53;5088900;28;20200;-72
2021/04/12 11:53:04;;;;;;;1.03;1.03;;;;;;;9.99;63.25;100962.44;5057450;28;20200;-72
2021/04/12 11:55:37;;;;;;;3.90;3.30;;;;;;;10.13;61.96;100970.53;5069703;28;20238;-72
2021/04/12 11:58:12;;;;;;;2.77;2.03;;;;;;;10.17;62.58;100965.81;5085041;28;20203;-72
2021/04/12 12:00:49;;;;;;;1.53;1.40;;;;;;;10.24;61.48;100960.00;5078429;28;20200;-72
2021/04/12 12:03:38;;;;;;;0.70;0.70;;;;;;;10.19;61.58;100958.53;5067853;28;20199;-72
2021/04/12 12:06:14;;;;;;;0.87;0.87;;;;;;;10.24;60.67;100965.38;5100625;28;20212;-72
2021/04/12 12:08:58;;;;;;;1.20;1.10;;;;;;;10.16;60.32;100964.09;5066008;28;20347;-72
2021/04/12 12:11:33;;;;;;;0.50;0.50;;;;;;;10.10;61.75;100980.56;5115218;27;20582;-72
2021/04/12 12:14:10;;;;;;;0.60;0.40;;;;;;;10.17;59.74;100974.75;5084064;28;20851;-71
2021/04/12 12:16:42;;;;;;;0.53;0.50;;;;;;;10.11;59.97;100977.81;5079951;28;20216;-72
2021/04/12 12:19:22;;;;;;;0.37;0.37;;;;;;;9.98;60.70;100986.69;5087036;28;20215;-71
2021/04/12 12:21:57;;;;;;;0.40;0.40;;;;;;;9.93;60.83;100990.53;5084683;28;20191;-72
2021/04/12 12:24:32;;;;;;;0.47;0.47;;;;;;;9.95;61.00;100982.38;5087240;28;20673;-72
2021/04/12 12:27:05;;;;;;;0.67;0.53;;;;;;;9.89;60.77;100980.09;5080313;28;20255;-72
2021/04/12 12:29:39;;;;;;;0.43;0.30;;;;;;;9.92;60.98;100993.31;5086334;28;20205;-72
2021/04/12 12:32:42;;;;;;;1.70;0.33;;;;;;;10.01;61.10;100990.03;5084580;28;20193;-72
2021/04/12 12:35:19;;;;;;;0.33;0.33;;;;;;;10.00;60.07;101000.88;5075768;28;20212;-72
2021/04/12 12:38:13;;;;;;;0.30;0.27;;;;;;;10.07;60.51;101019.19;5087738;28;20730;-72
2021/04/12 12:40:47;;;;;;;0.20;0.20;;;;;;;10.13;60.39;101031.38;5079417;28;20204;-72
2021/04/12 12:43:20;;;;;;;0.17;0.17;;;;;;;10.13;60.06;101026.00;5083848;28;20227;-72
2021/04/12 12:45:48;;;;;;;0.20;0.20;;;;;;;10.07;60.59;101013.81;5072214;28;20191;-72
2021/04/12 12:48:20;;;;;;;0.20;0.20;;;;;;;10.14;60.18;101025.91;5083576;28;21123;-72
2021/04/12 12:50:52;;;;;;;0.30;0.30;;;;;;;10.17;59.29;101031.09;5073354;28;20271;-72
2021/04/12 12:53:26;;;;;;;0.20;0.20;;;;;;;10.09;60.06;101014.56;5078198;28;20204;-72
2021/04/12 12:55:58;;;;;;;0.13;0.13;;;;;;;9.98;59.73;101024.25;5102351;28;22111;-72
2021/04/12 12:58:30;;;;;;;1.93;0.30;;;;;;;10.06;59.56;101017.44;5073123;28;20207;-72
2021/04/12 13:01:01;;;;;;;0.30;0.30;;;;;;;10.09;59.74;101021.75;5088653;28;20208;-72
2021/04/12 13:03:31;;;;;;;0.30;0.30;;;;;;;10.13;59.92;101026.88;5081215;28;20682;-72
2021/04/12 13:06:13;;;;;;;0.40;0.40;;;;;;;10.21;59.32;101027.28;5068064;28;20282;-71
2021/04/12 13:08:50;;;;;;;2.97;0.50;;;;;;;10.36;59.16;101033.53;5073330;28;20307;-72
2021/04/12 13:11:35;;;;;;;0.30;0.30;;;;;;;10.29;59.21;101025.94;5086377;28;20200;-72
2021/04/12 13:14:12;;;;;;;0.87;0.30;;;;;;;10.51;58.98;101021.84;5083490;28;20204;-72
2021/04/12 13:16:41;;;;;;;0.30;0.30;;;;;;;10.69;58.85;101032.34;5079631;28;20724;-71
2021/04/12 13:19:10;;;;;;;0.30;0.30;;;;;;;10.71;57.87;101033.97;5079793;28;20487;-71